createdAt,value
2019-01-02T00:01:33.537Z,96264.14
2019-01-02T00:04:23.507Z,96264.14
2019-01-02T00:07:13.703Z,96275.12
2019-01-02T00:10:22.584Z,96274.64
2019-01-02T00:13:12.596Z,96274.64
2019-01-02T00:16:21.262Z,96277.22
2019-01-02T00:19:10.750Z,96264.95
2019-01-02T00:22:01.076Z,96262.50
2019-01-02T00:24:51.505Z,96264.02
2019-01-02T00:27:40.950Z,96259.59
2019-01-02T00:30:30.598Z,96256.80
2019-01-02T00:33:22.489Z,96259.81
2019-01-02T00:36:12.176Z,96268.02
2019-01-02T00:39:02.121Z,96267.08
2019-01-02T00:41:51.892Z,96280.23
2019-01-02T00:44:42.067Z,96290.86
2019-01-02T00:47:50.728Z,96331.30
2019-01-02T00:50:40.171Z,96307.95
2019-01-02T00:53:30.194Z,96338.84
2019-01-02T00:56:20.337Z,96327.02
2019-01-02T00:59:11.709Z,96337.86
2019-01-02T01:02:01.665Z,96327.67
2019-01-02T01:04:51.371Z,96328.14
2019-01-02T01:07:43.388Z,96336.43
2019-01-02T01:10:33.106Z,96330.36
2019-01-02T01:13:23.308Z,96329.30
2019-01-02T01:16:13.122Z,96333.05
2019-01-02T01:19:02.546Z,96318.70
2019-01-02T01:21:52.018Z,96335.14
2019-01-02T01:24:42.290Z,96328.73
2019-01-02T01:27:33.789Z,96347.86
2019-01-02T01:30:24.569Z,96351.70
2019-01-02T01:33:14.402Z,96374.09
2019-01-02T01:36:04.260Z,96362.84
2019-01-02T01:38:53.751Z,96359.75
2019-01-02T01:41:43.566Z,96356.94
2019-01-02T01:44:33.609Z,96370.12
2019-01-02T01:47:23.738Z,96364.53
2019-01-02T01:50:14.030Z,96361.86
2019-01-02T01:53:03.569Z,96368.27
2019-01-02T01:55:52.996Z,96362.32
2019-01-02T01:58:43.103Z,96365.16
2019-01-02T02:01:32.808Z,96367.61
2019-01-02T02:04:23.949Z,96371.81
2019-01-02T02:07:15.101Z,96372.47
2019-01-02T02:10:06.565Z,96365.94
2019-01-02T02:12:56.523Z,96366.75
2019-01-02T02:15:46.322Z,96377.83
2019-01-02T02:18:35.799Z,96361.89
2019-01-02T02:21:27.215Z,96360.27
2019-01-02T02:24:17.497Z,96350.42
2019-01-02T02:27:06.945Z,96345.41
2019-01-02T02:29:56.424Z,96343.23
2019-01-02T02:32:47.751Z,96340.68
2019-01-02T02:35:37.943Z,96350.81
2019-01-02T02:38:29.848Z,96359.86
2019-01-02T02:41:21.320Z,96369.66
2019-01-02T02:44:12.485Z,96372.34
2019-01-02T02:47:02.502Z,96377.69
2019-01-02T02:49:52.260Z,96373.13
2019-01-02T02:52:42.432Z,96377.05
2019-01-02T02:55:31.883Z,96378.55
2019-01-02T02:58:23.601Z,96370.32
2019-01-02T03:01:13.139Z,96397.57
2019-01-02T03:04:03.268Z,96384.97
2019-01-02T03:06:55.594Z,96391.38
2019-01-02T03:09:46.637Z,96377.44
2019-01-02T03:12:36.796Z,96379.53
2019-01-02T03:15:26.538Z,96363.41
2019-01-02T03:18:16.987Z,96383.09
2019-01-02T03:21:06.778Z,96375.08
2019-01-02T03:23:56.238Z,96377.30
2019-01-02T03:26:45.996Z,96377.20
2019-01-02T03:29:35.715Z,96376.00
2019-01-02T03:32:27.181Z,96382.88
2019-01-02T03:35:37.528Z,96399.31
2019-01-02T03:38:27.246Z,96404.13
2019-01-02T03:41:16.951Z,96405.16
2019-01-02T03:44:06.910Z,96418.16
2019-01-02T03:46:56.358Z,96424.23
2019-01-02T03:49:45.828Z,96442.84
2019-01-02T03:52:35.295Z,96425.66
2019-01-02T03:55:25.384Z,96435.52
2019-01-02T03:58:14.832Z,96424.09
2019-01-02T04:01:04.648Z,96437.73
2019-01-02T04:03:54.175Z,96432.14
2019-01-02T04:06:43.856Z,96428.76
2019-01-02T04:09:33.296Z,96420.25
2019-01-02T04:12:23.213Z,96433.73
2019-01-02T04:15:13.452Z,96420.14
2019-01-02T04:18:02.967Z,96415.12
2019-01-02T04:20:52.554Z,96420.25
2019-01-02T04:23:42.247Z,96427.37
2019-01-02T04:26:31.907Z,96433.52
2019-01-02T04:29:21.673Z,96427.43
2019-01-02T04:32:11.712Z,96429.53
2019-01-02T04:38:14.980Z,96434.11
2019-01-02T04:41:23.863Z,96438.70
2019-01-02T04:44:13.629Z,96446.38
2019-01-02T04:47:22.544Z,96434.93
2019-01-02T04:50:14.135Z,96438.59
2019-01-02T04:53:03.837Z,96438.59
2019-01-02T04:55:53.763Z,96442.26
2019-01-02T04:58:44.004Z,96461.31
2019-01-02T05:01:33.520Z,96443.59
2019-01-02T05:04:42.427Z,96471.42
2019-01-02T05:07:51.155Z,96478.84
2019-01-02T05:10:59.847Z,96493.03
2019-01-02T05:13:49.540Z,96493.03
2019-01-02T05:16:39.339Z,96497.91
2019-01-02T05:19:28.798Z,96497.91
2019-01-02T05:22:18.727Z,96490.78
2019-01-02T05:25:08.812Z,96501.67
2019-01-02T05:27:59.065Z,96511.09
2019-01-02T05:31:07.746Z,96513.50
2019-01-02T05:33:57.450Z,96513.50
2019-01-02T05:36:47.730Z,96507.56
2019-01-02T05:39:56.626Z,96515.39
2019-01-02T05:42:46.419Z,96515.39
2019-01-02T05:45:55.071Z,96512.02
2019-01-02T05:49:03.980Z,96498.15
2019-01-02T05:51:53.654Z,96511.36
2019-01-02T05:54:43.613Z,96521.04
2019-01-02T05:57:33.403Z,96521.04
2019-01-02T06:00:43.275Z,96524.61
2019-01-02T06:03:33.000Z,96524.61
2019-01-02T06:06:41.779Z,96508.44
2019-01-02T06:09:31.468Z,96508.44
2019-01-02T06:12:41.058Z,96517.86
2019-01-02T06:15:31.465Z,96517.86
2019-01-02T06:18:40.454Z,96507.71
2019-01-02T06:21:30.856Z,96507.71
2019-01-02T06:24:40.482Z,96505.31
2019-01-02T06:27:30.567Z,96505.31
2019-01-02T06:30:20.103Z,96498.66
2019-01-02T06:33:21.903Z,96490.38
2019-01-02T06:36:11.899Z,96494.66
2019-01-02T06:39:02.036Z,96494.66
2019-01-02T06:42:10.721Z,96503.32
2019-01-02T06:45:01.394Z,96503.32
2019-01-02T06:48:10.623Z,96497.94
2019-01-02T06:51:00.069Z,96497.94
2019-01-02T06:53:49.812Z,96501.58
2019-01-02T06:56:39.789Z,96497.44
2019-01-02T06:59:29.531Z,96491.30
2019-01-02T07:02:19.241Z,96510.27
2019-01-02T07:05:28.347Z,96510.89
2019-01-02T07:08:18.073Z,96510.89
2019-01-02T07:11:07.626Z,96514.83
2019-01-02T07:13:57.581Z,96507.36
2019-01-02T07:17:06.514Z,96514.78
2019-01-02T07:19:55.984Z,96514.78
2019-01-02T07:23:08.161Z,96510.13
2019-01-02T07:25:57.904Z,96514.31
2019-01-02T07:28:48.136Z,96510.47
2019-01-02T07:31:37.890Z,96518.66
2019-01-02T07:35:05.683Z,96511.45
2019-01-02T07:38:19.752Z,96537.36
2019-01-02T07:41:47.589Z,96529.98
2019-01-02T07:45:15.678Z,96533.24
2019-01-02T07:48:43.737Z,96528.12
2019-01-02T07:52:14.313Z,96532.06
2019-01-02T07:55:42.379Z,96525.12
2019-01-02T07:59:10.264Z,96544.41
2019-01-02T08:02:38.115Z,96544.41
2019-01-02T08:06:05.931Z,96540.69
2019-01-02T08:09:34.004Z,96540.69
2019-01-02T08:13:01.801Z,96549.05
2019-01-02T08:16:29.818Z,96563.06
2019-01-02T08:19:56.025Z,96564.50
2019-01-02T08:23:13.134Z,96560.34
2019-01-02T08:26:40.922Z,96560.34
2019-01-02T08:30:11.473Z,96552.56
2019-01-02T08:33:24.515Z,96567.41
2019-01-02T08:36:52.635Z,96576.73
2019-01-02T08:40:20.437Z,96566.91
2019-01-02T08:43:35.170Z,96573.67
2019-01-02T08:47:01.934Z,96573.67
2019-01-02T08:50:29.769Z,96575.25
2019-01-02T08:53:58.100Z,96598.03
2019-01-02T08:57:13.788Z,96592.77
2019-01-02T09:00:28.579Z,96586.92
2019-01-02T09:03:56.421Z,96583.44
2019-01-02T09:07:24.211Z,96591.38
2019-01-02T09:10:52.170Z,96591.38
2019-01-02T09:14:09.547Z,96603.71
2019-01-02T09:17:37.374Z,96606.44
2019-01-02T09:21:07.507Z,96600.11
2019-01-02T09:24:35.323Z,96602.34
2019-01-02T09:28:03.285Z,96611.92
2019-01-02T09:31:31.088Z,96612.73
2019-01-02T09:35:13.693Z,96605.70
2019-01-02T09:42:03.027Z,96616.95
2019-01-02T09:45:31.106Z,96625.25
2019-01-02T09:48:38.206Z,96625.52
2019-01-02T09:52:06.080Z,96630.98
2019-01-02T09:55:33.882Z,96636.87
2019-01-02T09:59:01.716Z,96631.28
2019-01-02T10:02:29.534Z,96631.70
2019-01-02T10:06:00.362Z,96635.70
2019-01-02T10:09:28.161Z,96641.28
2019-01-02T10:12:50.983Z,96638.17
2019-01-02T10:16:19.011Z,96631.68
2019-01-02T10:19:46.827Z,96638.53
2019-01-02T10:23:01.243Z,96644.31
2019-01-02T10:26:29.320Z,96640.54
2019-01-02T10:29:57.141Z,96635.30
2019-01-02T10:32:59.229Z,96632.02
2019-01-02T10:36:27.098Z,96632.02
2019-01-02T10:39:54.902Z,96638.00
2019-01-02T10:47:11.786Z,96630.45
2019-01-02T10:50:39.904Z,96620.52
2019-01-02T10:54:07.980Z,96616.72
2019-01-02T10:57:24.285Z,96623.94
2019-01-02T11:00:52.175Z,96605.42
2019-01-02T11:04:20.227Z,96606.80
2019-01-02T11:07:33.359Z,96608.93
2019-01-02T11:11:01.173Z,96612.16
2019-01-02T11:14:24.791Z,96612.35
2019-01-02T11:17:39.043Z,96601.59
2019-01-02T11:21:06.866Z,96589.08
2019-01-02T11:24:35.017Z,96598.78
2019-01-02T11:28:00.772Z,96596.39
2019-01-02T11:31:21.071Z,96576.00
2019-01-02T11:34:34.961Z,96567.81
2019-01-02T11:38:00.135Z,96558.14
2019-01-02T11:41:27.945Z,96554.16
2019-01-02T11:44:45.482Z,96541.95
2019-01-02T11:47:35.519Z,96541.31
2019-01-02T11:50:25.568Z,96542.89
2019-01-02T11:53:15.349Z,96535.92
2019-01-02T11:56:06.207Z,96541.47
2019-01-02T11:58:57.019Z,96544.05
2019-01-02T12:01:47.077Z,96550.96
2019-01-02T12:04:36.597Z,96543.41
2019-01-02T12:07:26.770Z,96540.45
2019-01-02T12:13:13.585Z,96543.15
2019-01-02T12:16:03.374Z,96543.28
2019-01-02T12:19:13.854Z,96545.23
2019-01-02T12:22:03.651Z,96539.64
2019-01-02T12:24:53.578Z,96524.85
2019-01-02T12:27:43.664Z,96533.53
2019-01-02T12:30:34.313Z,96527.38
2019-01-02T12:33:24.364Z,96520.23
2019-01-02T12:36:33.050Z,96520.31
2019-01-02T12:39:23.019Z,96520.31
2019-01-02T12:42:12.775Z,96513.62
2019-01-02T12:45:21.762Z,96503.33
2019-01-02T12:48:11.740Z,96496.70
2019-01-02T12:51:01.473Z,96481.54
2019-01-02T12:53:51.718Z,96492.69
2019-01-02T12:56:41.418Z,96490.23
2019-01-02T12:59:31.647Z,96476.92
2019-01-02T13:02:59.717Z,96482.05
2019-01-02T13:06:28.464Z,96481.41
2019-01-02T13:09:49.148Z,96485.59
2019-01-02T13:13:16.972Z,96479.32
2019-01-02T13:16:31.316Z,96465.13
2019-01-02T13:23:20.083Z,96480.54
2019-01-02T13:26:47.871Z,96496.97
2019-01-02T13:30:08.658Z,96496.97
2019-01-02T13:33:36.454Z,96500.09
2019-01-02T13:37:04.274Z,96500.09
2019-01-02T13:40:16.552Z,96519.69
2019-01-02T13:43:45.083Z,96516.47
2019-01-02T13:47:12.938Z,96515.34
2019-01-02T13:50:25.699Z,96515.34
2019-01-02T13:53:15.499Z,96511.61
2019-01-02T13:56:24.708Z,96496.03
2019-01-02T13:59:15.028Z,96496.03
2019-01-02T14:02:04.961Z,96493.77
2019-01-02T14:04:54.839Z,96487.43
2019-01-02T14:07:45.820Z,96495.05
2019-01-02T14:10:35.908Z,96495.20
2019-01-02T14:13:27.054Z,96508.67
2019-01-02T14:16:16.534Z,96507.24
2019-01-02T14:19:06.344Z,96517.95
2019-01-02T14:22:15.026Z,96524.33
2019-01-02T14:25:04.941Z,96527.00
2019-01-02T14:28:13.619Z,96526.79
2019-01-02T14:31:22.374Z,96522.02
2019-01-02T14:34:31.780Z,96524.13
2019-01-02T14:37:21.568Z,96524.13
2019-01-02T14:40:11.096Z,96531.78
2019-01-02T14:43:01.464Z,96527.02
2019-01-02T14:46:10.423Z,96558.46
2019-01-02T14:48:59.912Z,96558.46
2019-01-02T14:51:50.374Z,96550.72
2019-01-02T14:54:40.390Z,96554.15
2019-01-02T14:57:30.153Z,96560.96
2019-01-02T15:00:38.835Z,96570.74
2019-01-02T15:03:28.327Z,96570.74
2019-01-02T15:06:18.410Z,96597.66
2019-01-02T15:09:09.546Z,96615.98
2019-01-02T15:12:18.328Z,96632.98
2019-01-02T15:15:08.987Z,96632.98
2019-01-02T15:17:58.817Z,96662.02
2019-01-02T15:21:07.793Z,96654.97
2019-01-02T15:23:58.396Z,96654.97
2019-01-02T15:27:07.078Z,96638.12
2019-01-02T15:30:09.057Z,96649.52
2019-01-02T15:33:13.211Z,96652.72
2019-01-02T15:36:02.955Z,96652.72
2019-01-02T15:39:11.896Z,96659.76
2019-01-02T15:42:20.818Z,96657.27
2019-01-02T15:45:29.498Z,96672.36
2019-01-02T15:48:19.344Z,96672.63
2019-01-02T15:51:09.184Z,96672.63
2019-01-02T15:54:19.127Z,96683.13
2019-01-02T15:57:09.342Z,96706.08
2019-01-02T15:59:59.071Z,96736.14
2019-01-02T16:02:49.071Z,96736.14
2019-01-02T16:05:39.053Z,96757.16
2019-01-02T16:08:28.762Z,96792.14
2019-01-02T16:11:38.005Z,96817.52
2019-01-02T16:14:46.732Z,96827.80
2019-01-02T16:17:36.192Z,96827.80
2019-01-02T16:20:45.112Z,96810.47
2019-01-02T16:23:35.210Z,96810.47
2019-01-02T16:26:24.920Z,96808.78
2019-01-02T16:29:14.780Z,96824.09
2019-01-02T16:32:04.747Z,96824.09
2019-01-02T16:34:54.726Z,96822.11
2019-01-02T16:37:44.291Z,96823.75
2019-01-02T16:40:34.076Z,96823.75
2019-01-02T16:43:43.506Z,96818.48
2019-01-02T16:46:33.438Z,96820.13
2019-01-02T16:49:23.210Z,96819.52
2019-01-02T16:52:13.366Z,96822.03
2019-01-02T16:55:03.485Z,96839.66
2019-01-02T16:58:12.307Z,96846.84
2019-01-02T17:01:24.802Z,96846.84
2019-01-02T17:04:14.593Z,96854.73
2019-01-02T17:07:04.711Z,96858.00
2019-01-02T17:09:54.374Z,96864.03
2019-01-02T17:12:44.217Z,96864.03
2019-01-02T17:15:34.690Z,96863.20
2019-01-02T17:18:24.928Z,96871.16
2019-01-02T17:21:34.560Z,96871.95
2019-01-02T17:24:24.417Z,96871.95
2019-01-02T17:27:33.088Z,96882.56
2019-01-02T17:30:34.732Z,96886.11
2019-01-02T17:33:24.304Z,96894.13
2019-01-02T17:36:32.964Z,96899.16
2019-01-02T17:39:22.841Z,96899.16
2019-01-02T17:42:12.999Z,96901.76
2019-01-02T17:45:04.169Z,96905.35
2019-01-02T17:48:13.573Z,96906.59
2019-01-02T17:51:07.381Z,96906.59
2019-01-02T17:53:57.107Z,96923.48
2019-01-02T17:56:47.458Z,96923.48
2019-01-02T17:59:37.380Z,96923.19
2019-01-02T18:02:27.299Z,96926.64
2019-01-02T18:05:16.867Z,96934.76
2019-01-02T18:08:06.672Z,96934.76
2019-01-02T18:10:56.166Z,96941.80
2019-01-02T18:13:45.998Z,96946.74
2019-01-02T18:16:36.742Z,96946.74
2019-01-02T18:19:26.222Z,96955.68
2019-01-02T18:22:16.070Z,96955.68
2019-01-02T18:25:05.734Z,96962.89
2019-01-02T18:27:55.798Z,96959.97
2019-01-02T18:30:45.776Z,96963.50
2019-01-02T18:33:35.327Z,96968.16
2019-01-02T18:36:24.814Z,96968.16
2019-01-02T18:39:33.766Z,96969.44
2019-01-02T18:42:23.598Z,96979.78
2019-01-02T18:45:13.175Z,96979.78
2019-01-02T18:48:02.671Z,96982.44
2019-01-02T18:50:52.799Z,96977.66
2019-01-02T18:54:01.711Z,96984.48
2019-01-02T18:56:51.586Z,96983.72
2019-01-02T18:59:41.415Z,96983.72
2019-01-02T19:02:31.239Z,97003.48
2019-01-02T19:05:21.002Z,97000.77
2019-01-02T19:08:10.743Z,97001.61
2019-01-02T19:11:00.461Z,97010.75
2019-01-02T19:14:10.263Z,97009.41
2019-01-02T19:17:00.359Z,97009.41
2019-01-02T19:20:09.195Z,97018.80
2019-01-02T19:26:35.625Z,97023.05
2019-01-02T19:29:38.463Z,97023.05
2019-01-02T19:32:28.019Z,97020.89
2019-01-02T19:35:38.579Z,97031.78
2019-01-02T19:38:47.533Z,97030.42
2019-01-02T19:41:58.579Z,97026.59
2019-01-02T19:44:48.370Z,97026.59
2019-01-02T19:51:21.050Z,97030.43
2019-01-02T19:54:03.179Z,97028.92
2019-01-02T20:00:46.559Z,97040.84
2019-01-02T20:03:38.067Z,97040.84
2019-01-02T20:10:34.048Z,97042.17
2019-01-02T20:13:47.872Z,97035.81
2019-01-02T20:17:38.873Z,97029.06
2019-01-02T20:20:26.882Z,97029.06
2019-01-02T20:23:37.551Z,97021.77
2019-01-02T20:26:33.689Z,97025.86
2019-01-02T20:30:01.430Z,97025.86
2019-01-02T20:32:51.063Z,97026.75
2019-01-02T20:35:41.345Z,97024.61
2019-01-02T20:38:50.148Z,97030.59
2019-01-02T20:44:55.745Z,97032.73
2019-01-02T20:48:04.806Z,97032.73
2019-01-02T20:57:01.944Z,97023.95
2019-01-02T20:59:52.054Z,97020.06
2019-01-02T21:03:00.962Z,97025.38
2019-01-02T21:05:51.951Z,97025.38
2019-01-02T21:08:42.065Z,97018.02
2019-01-02T21:11:31.785Z,97018.84
2019-01-02T21:14:21.838Z,97025.61
2019-01-02T21:17:11.638Z,97018.92
2019-01-02T21:20:01.080Z,97015.11
2019-01-02T21:22:52.891Z,97023.73
2019-01-02T21:25:42.836Z,97018.92
2019-01-02T21:28:32.690Z,97018.92
2019-01-02T21:31:22.159Z,97012.03
2019-01-02T21:34:12.965Z,97012.03
2019-01-02T21:37:03.523Z,97018.02
2019-01-02T21:40:12.344Z,97022.83
2019-01-02T21:43:04.381Z,97022.83
2019-01-02T21:45:57.361Z,97023.07
2019-01-02T21:48:48.450Z,97015.01
2019-01-02T21:51:38.787Z,97013.81
2019-01-02T21:54:28.616Z,97013.36
2019-01-02T21:57:18.066Z,97012.27
2019-01-02T22:00:11.643Z,97012.27
2019-01-02T22:03:20.659Z,97028.17
2019-01-02T22:06:10.837Z,97028.17
2019-01-02T22:09:19.521Z,97020.45
2019-01-02T22:12:10.048Z,97020.45
2019-01-02T22:15:00.299Z,97015.33
2019-01-02T22:18:09.048Z,97023.83
2019-01-02T22:21:19.522Z,97023.83
2019-01-02T22:24:09.314Z,97029.83
2019-01-02T22:26:59.257Z,97031.19
2019-01-02T22:29:48.995Z,97035.16
2019-01-02T22:32:38.631Z,97038.02
2019-01-02T22:35:28.427Z,97045.38
2019-01-02T22:38:18.296Z,97041.09
2019-01-02T22:41:08.289Z,97049.06
2019-01-02T22:43:58.967Z,97041.48
2019-01-02T22:46:48.488Z,97049.88
2019-01-02T22:49:38.620Z,97049.88
2019-01-02T22:52:47.283Z,97047.61
2019-01-02T22:55:36.977Z,97053.32
2019-01-02T22:58:26.447Z,97057.37
2019-01-02T23:01:35.880Z,97064.51
2019-01-02T23:04:56.872Z,97055.88
2019-01-02T23:08:08.584Z,97060.91
2019-01-02T23:11:17.541Z,97063.16
2019-01-02T23:14:26.773Z,97063.16
2019-01-02T23:17:35.496Z,97062.71
2019-01-02T23:20:44.772Z,97068.56
2019-01-02T23:23:53.898Z,97063.38
2019-01-02T23:27:02.605Z,97076.52
2019-01-02T23:30:11.369Z,97083.13
2019-01-02T23:33:20.294Z,97083.13
2019-01-02T23:36:48.201Z,97079.95
2019-01-02T23:39:57.255Z,97087.25
2019-01-02T23:43:06.199Z,97089.66
2019-01-02T23:46:15.879Z,97092.52
2019-01-02T23:49:24.434Z,97092.14
2019-01-02T23:52:33.141Z,97095.73
2019-01-02T23:55:42.071Z,97094.36
2019-01-02T23:58:50.521Z,97099.94
